Time;durP1;ratioP1;P1;durP2;ratioP2;P2;SDS_P1;SDS_P2;PMS_P1;PMS_P2;Temp;Humidity;BMP_temperature;BMP_pressure;BME280_temperature;BME280_humidity;BME280_pressure;Samples;Min_cycle;Max_cycle;Signal;HPM_P1;HPM_P2
2022/04/07 00:00:21;;;;;;;0.50;0.50;;;;;;;8.37;83.89;95531.19;29395;224;63008;-68
2022/04/07 00:00:53;;;;;;;0.50;0.50;;;;;;;8.32;83.84;95528.59;29395;214;63005;-67
2022/04/07 00:01:24;;;;;;;0.50;0.50;;;;;;;8.29;84.57;95527.34;29395;207;63009;-66
2022/04/07 00:01:55;;;;;;;0.50;0.50;;;;;;;8.28;84.17;95535.75;29394;199;64005;-66
2022/04/07 00:02:26;;;;;;;0.50;0.50;;;;;;;8.35;84.77;95530.69;29395;213;63009;-59
2022/04/07 00:02:57;;;;;;;0.50;0.50;;;;;;;8.38;84.15;95533.59;29394;203;64005;-67
2022/04/07 00:03:29;;;;;;;0.50;0.50;;;;;;;8.37;83.80;95537.41;29394;216;64009;-67
2022/04/07 00:04:00;;;;;;;0.50;0.50;;;;;;;8.34;84.51;95534.50;29395;202;63005;-59
2022/04/07 00:04:31;;;;;;;0.50;0.50;;;;;;;8.39;84.07;95534.37;29395;319;63009;-67
2022/04/07 00:05:03;;;;;;;0.50;0.50;;;;;;;8.40;84.12;95527.87;29395;249;63004;-66
2022/04/07 00:05:34;;;;;;;0.50;0.50;;;;;;;8.41;83.62;95534.87;29395;214;63013;-54
2022/04/07 00:06:09;;;;;;;0.50;0.50;;;;;;;8.47;83.38;95530.91;29395;240;63004;-66
2022/04/07 00:06:40;;;;;;;0.50;0.50;;;;;;;8.46;83.20;95529.31;29395;208;63009;-67
2022/04/07 00:07:12;;;;;;;0.50;0.50;;;;;;;8.44;83.14;95531.53;29395;256;63004;-59
2022/04/07 00:07:43;;;;;;;0.50;0.50;;;;;;;8.40;83.42;95534.06;29395;241;63008;-68
2022/04/07 00:08:14;;;;;;;0.50;0.50;;;;;;;8.39;83.40;95529.78;29394;263;64004;-67
2022/04/07 00:08:45;;;;;;;0.50;0.50;;;;;;;8.41;83.08;95526.75;29395;197;63009;-59
2022/04/07 00:09:17;;;;;;;0.50;0.50;;;;;;;8.38;83.58;95533.59;29395;219;63005;-64
2022/04/07 00:09:48;;;;;;;0.50;0.50;;;;;;;8.40;83.26;95525.16;29394;295;63998;-66
2022/04/07 00:10:20;;;;;;;0.50;0.50;;;;;;;8.39;83.18;95523.56;29395;221;63010;-66
2022/04/07 00:10:52;;;;;;;0.50;0.50;;;;;;;8.39;83.41;95523.56;29395;315;63009;-65
2022/04/07 00:11:24;;;;;;;0.50;0.50;;;;;;;8.42;82.87;95522.16;29395;214;63005;-65
2022/04/07 00:11:55;;;;;;;0.50;0.50;;;;;;;8.43;82.77;95518.34;29395;321;63015;-65
2022/04/07 00:12:26;;;;;;;0.50;0.50;;;;;;;8.44;82.92;95526.13;29395;225;63005;-66
2022/04/07 00:12:57;;;;;;;0.50;0.50;;;;;;;8.43;83.02;95518.34;29395;208;63009;-67
2022/04/07 00:13:28;;;;;;;0.50;0.50;;;;;;;8.42;83.00;95516.75;29395;197;63004;-67
2022/04/07 00:14:00;;;;;;;0.50;0.50;;;;;;;8.39;83.28;95521.66;29395;206;63009;-67
2022/04/07 00:14:31;;;;;;;0.50;0.50;;;;;;;8.37;83.15;95526.59;29395;225;63004;-66
2022/04/07 00:15:03;;;;;;;0.50;0.50;;;;;;;8.37;83.01;95520.37;29394;259;64008;-68
2022/04/07 00:15:35;;;;;;;0.50;0.50;;;;;;;8.34;83.06;95521.81;29395;196;63007;-67
2022/04/07 00:16:08;;;;;;;0.50;0.50;;;;;;;8.31;83.36;95529.72;29395;380;63009;-67
2022/04/07 00:16:39;;;;;;;0.60;0.60;;;;;;;8.31;83.41;95535.13;29395;222;63005;-67
2022/04/07 00:17:10;;;;;;;0.50;0.50;;;;;;;8.27;83.59;95521.44;29394;222;64009;-67
2022/04/07 00:17:41;;;;;;;0.43;0.43;;;;;;;8.25;83.42;95522.84;29395;305;63005;-67
2022/04/07 00:18:12;;;;;;;0.50;0.50;;;;;;;8.22;83.97;95523.47;29395;224;63009;-59
2022/04/07 00:18:43;;;;;;;0.50;0.50;;;;;;;8.19;84.24;95524.09;29395;197;63005;-67
2022/04/07 00:19:15;;;;;;;0.50;0.50;;;;;;;8.16;84.39;95527.41;29395;259;63009;-68
2022/04/07 00:19:46;;;;;;;0.60;0.60;;;;;;;8.13;84.46;95525.34;29395;208;63005;-68
2022/04/07 00:20:18;;;;;;;0.50;0.50;;;;;;;8.14;84.78;95527.72;29395;282;63015;-66
2022/04/07 00:20:53;;;;;;;0.50;0.50;;;;;;;8.13;84.71;95514.53;29395;197;63004;-67
2022/04/07 00:21:24;;;;;;;0.50;0.50;;;;;;;8.11;84.64;95517.53;29395;221;63020;-66
2022/04/07 00:21:56;;;;;;;0.50;0.50;;;;;;;8.09;84.47;95525.16;29395;347;63009;-68
2022/04/07 00:22:27;;;;;;;0.50;0.50;;;;;;;8.07;84.81;95521.97;29394;220;64009;-67
2022/04/07 00:22:58;;;;;;;0.60;0.60;;;;;;;8.04;84.59;95514.47;29395;220;63004;-67
2022/04/07 00:23:29;;;;;;;0.50;0.50;;;;;;;8.02;84.88;95512.06;29395;225;63009;-67
2022/04/07 00:24:00;;;;;;;0.50;0.50;;;;;;;8.01;84.86;95515.88;29395;215;63005;-68
2022/04/07 00:24:32;;;;;;;0.50;0.50;;;;;;;8.02;85.06;95508.59;29395;278;63009;-61
2022/04/07 00:25:04;;;;;;;0.50;0.50;;;;;;;8.12;84.01;95512.94;29395;259;63005;-66
2022/04/07 00:25:35;;;;;;;0.50;0.50;;;;;;;8.16;83.91;95513.91;29395;301;63009;-68
2022/04/07 00:26:06;;;;;;;0.50;0.50;;;;;;;8.15;83.45;95518.50;29395;254;63005;-59
2022/04/07 00:26:38;;;;;;;0.52;0.52;;;;;;;8.15;83.84;95513.13;29395;230;63009;-66
2022/04/07 00:27:10;;;;;;;0.50;0.50;;;;;;;8.24;83.31;95516.66;29395;220;63000;-67
2022/04/07 00:27:41;;;;;;;0.50;0.50;;;;;;;8.26;83.37;95516.34;29394;202;64009;-66
2022/04/07 00:28:12;;;;;;;0.50;0.50;;;;;;;8.25;82.95;95518.25;29395;212;63004;-66
2022/04/07 00:28:44;;;;;;;0.50;0.50;;;;;;;8.25;83.15;95512.06;29395;309;63009;-66
2022/04/07 00:29:17;;;;;;;0.50;0.50;;;;;;;8.23;82.89;95511.56;29395;320;63010;-66
2022/04/07 00:29:48;;;;;;;0.50;0.50;;;;;;;8.22;83.19;95512.66;29395;266;63009;-66
2022/04/07 00:30:21;;;;;;;0.50;0.50;;;;;;;8.21;83.07;95508.38;29395;204;63004;-67
2022/04/07 00:30:52;;;;;;;0.50;0.50;;;;;;;8.18;83.25;95509.78;29395;221;63008;-57
2022/04/07 00:31:24;;;;;;;0.50;0.50;;;;;;;8.20;83.47;95510.28;29395;223;63005;-66
2022/04/07 00:31:57;;;;;;;0.50;0.50;;;;;;;8.19;83.34;95507.88;29395;202;63009;-67
2022/04/07 00:32:29;;;;;;;0.50;0.50;;;;;;;8.17;83.05;95510.09;29395;214;63005;-66
2022/04/07 00:33:01;;;;;;;0.50;0.50;;;;;;;8.17;83.49;95507.41;29394;203;64009;-60
2022/04/07 00:33:32;;;;;;;0.50;0.50;;;;;;;8.19;83.29;95502.47;29395;266;63005;-67
2022/04/07 00:34:03;;;;;;;0.50;0.50;;;;;;;8.19;83.29;95508.69;29395;198;63009;-66
2022/04/07 00:34:34;;;;;;;0.50;0.50;;;;;;;8.19;83.51;95502.47;29395;249;63005;-67
2022/04/07 00:35:06;;;;;;;0.50;0.50;;;;;;;8.18;83.35;95500.88;29395;239;63009;-67
2022/04/07 00:35:38;;;;;;;0.50;0.50;;;;;;;8.16;83.25;95501.19;29395;196;63004;-67
2022/04/07 00:36:09;;;;;;;0.50;0.50;;;;;;;8.14;83.35;95503.41;29395;254;63009;-67
2022/04/07 00:36:40;;;;;;;0.50;0.50;;;;;;;8.14;83.51;95502.63;29395;227;63004;-67
2022/04/07 00:37:11;;;;;;;0.50;0.50;;;;;;;8.13;83.46;95498.31;29395;224;63009;-67
2022/04/07 00:37:43;;;;;;;0.50;0.50;;;;;;;8.15;83.79;95501.50;29395;234;63004;-66
2022/04/07 00:38:14;;;;;;;0.50;0.50;;;;;;;8.16;83.97;95497.69;29394;244;64008;-60
2022/04/07 00:38:46;;;;;;;0.50;0.50;;;;;;;8.15;83.74;95499.59;29395;206;63005;-68
2022/04/07 00:39:17;;;;;;;0.50;0.50;;;;;;;8.15;83.94;95499.59;29395;233;63016;-59
2022/04/07 00:39:49;;;;;;;0.50;0.50;;;;;;;8.16;83.69;95489.59;29395;223;63005;-68
2022/04/07 00:40:22;;;;;;;1.30;1.30;;;;;;;8.18;84.26;95492.78;29395;209;63009;-67
2022/04/07 00:40:53;;;;;;;0.50;0.50;;;;;;;8.20;83.83;95496.75;29395;226;63005;-66
2022/04/07 00:41:24;;;;;;;0.50;0.50;;;;;;;8.19;84.21;95497.06;29395;202;63020;-66
2022/04/07 00:41:55;;;;;;;0.50;0.50;;;;;;;8.18;84.18;95487.38;29395;220;63004;-66
2022/04/07 00:42:26;;;;;;;0.50;0.50;;;;;;;8.16;84.40;95492.28;29395;304;63009;-59
2022/04/07 00:42:57;;;;;;;0.50;0.50;;;;;;;8.14;84.41;95481.00;29395;212;63004;-65
2022/04/07 00:43:30;;;;;;;0.50;0.50;;;;;;;8.15;84.09;95485.28;29394;292;64009;-61
2022/04/07 00:44:01;;;;;;;0.50;0.50;;;;;;;8.22;84.12;95491.06;29395;204;63004;-67
2022/04/07 00:44:32;;;;;;;0.50;0.50;;;;;;;8.27;83.75;95499.03;29395;280;63008;-66
2022/04/07 00:45:06;;;;;;;0.60;0.60;;;;;;;8.37;83.26;95493.34;29395;295;63004;-66
2022/04/07 00:45:41;;;;;;;0.50;0.50;;;;;;;8.38;83.55;95493.03;29395;269;63008;-66
2022/04/07 00:46:12;;;;;;;0.50;0.50;;;;;;;8.36;83.42;95489.06;29395;232;63005;-66
2022/04/07 00:46:43;;;;;;;0.50;0.50;;;;;;;8.30;83.63;95490.31;29395;202;63009;-67
2022/04/07 00:47:14;;;;;;;0.50;0.50;;;;;;;8.26;84.16;95492.03;29395;273;63005;-67
2022/04/07 00:47:46;;;;;;;0.50;0.50;;;;;;;8.24;84.12;95495.03;29395;197;63009;-67
2022/04/07 00:48:17;;;;;;;0.50;0.50;;;;;;;8.26;83.88;95492.03;29395;267;63005;-66
2022/04/07 00:48:48;;;;;;;0.50;0.50;;;;;;;8.29;83.61;95486.81;29394;229;64009;-66
2022/04/07 00:49:19;;;;;;;0.50;0.50;;;;;;;8.32;83.62;95491.59;29395;203;63012;-66
2022/04/07 00:49:50;;;;;;;0.50;0.50;;;;;;;8.42;83.08;95485.09;29395;254;63009;-58
2022/04/07 00:50:21;;;;;;;0.50;0.50;;;;;;;8.44;82.84;95492.91;29395;202;63004;-66
2022/04/07 00:50:56;;;;;;;0.50;0.50;;;;;;;8.42;82.98;95485.09;29395;202;63009;-67
2022/04/07 00:51:27;;;;;;;0.50;0.50;;;;;;;8.38;82.73;95489.53;29395;326;63004;-59
2022/04/07 00:51:59;;;;;;;0.50;0.50;;;;;;;8.32;83.03;95480.78;29395;237;63008;-66
2022/04/07 00:52:32;;;;;;;0.50;0.50;;;;;;;8.32;83.31;95485.34;29395;218;63004;-69
2022/04/07 00:53:03;;;;;;;0.50;0.50;;;;;;;8.29;83.20;95492.19;29395;198;63009;-59
2022/04/07 00:53:36;;;;;;;0.50;0.50;;;;;;;8.32;83.47;95490.75;29395;236;63005;-59
2022/04/07 00:54:09;;;;;;;0.50;0.50;;;;;;;8.35;83.18;95484.75;29394;224;64009;-68
2022/04/07 00:54:41;;;;;;;0.50;0.50;;;;;;;8.36;83.07;95486.34;29395;207;63005;-68
2022/04/07 00:55:14;;;;;;;0.50;0.50;;;;;;;8.36;83.14;95483.66;29395;202;63009;-67
2022/04/07 00:55:48;;;;;;;0.50;0.50;;;;;;;8.35;83.26;95490.16;29395;214;63005;-67
2022/04/07 00:56:20;;;;;;;0.50;0.50;;;;;;;8.34;83.16;95485.88;29395;202;63009;-59
2022/04/07 00:56:54;;;;;;;0.50;0.50;;;;;;;8.30;83.79;95483.00;29395;216;63005;-62
2022/04/07 00:57:26;;;;;;;0.50;0.50;;;;;;;8.28;83.88;95479.00;29395;207;63009;-67
2022/04/07 00:57:58;;;;;;;0.50;0.50;;;;;;;8.25;84.08;95480.41;29394;237;64004;-66
2022/04/07 00:58:33;;;;;;;0.50;0.50;;;;;;;8.22;84.41;95480.25;29395;210;63009;-68
2022/04/07 00:59:07;;;;;;;0.50;0.50;;;;;;;8.19;84.37;95475.47;29395;214;63004;-67
2022/04/07 00:59:41;;;;;;;0.60;0.60;;;;;;;8.19;84.37;95480.87;29395;212;63008;-67
2022/04/07 01:00:14;;;;;;;0.50;0.50;;;;;;;8.18;84.38;95476.56;29395;227;63004;-60
2022/04/07 01:00:46;;;;;;;0.50;0.50;;;;;;;8.17;85.15;95466.87;29394;229;64009;-67
2022/04/07 01:01:22;;;;;;;0.50;0.50;;;;;;;8.16;84.89;95470.69;29395;294;63005;-67
2022/04/07 01:01:55;;;;;;;0.50;0.50;;;;;;;8.17;84.94;95477.69;29395;256;63009;-68
2022/04/07 01:02:26;;;;;;;0.50;0.50;;;;;;;8.17;85.04;95474.97;29395;213;63005;-67
2022/04/07 01:02:57;;;;;;;0.50;0.50;;;;;;;8.15;85.19;95479.88;29395;211;63009;-67
2022/04/07 01:03:29;;;;;;;0.50;0.50;;;;;;;8.14;85.09;95479.09;29395;206;63005;-67
2022/04/07 01:04:00;;;;;;;0.50;0.50;;;;;;;8.17;85.22;95470.38;29395;251;63009;-66
2022/04/07 01:04:33;;;;;;;0.50;0.50;;;;;;;8.21;85.26;95475.94;29395;245;63000;-59
2022/04/07 01:05:06;;;;;;;0.50;0.50;;;;;;;8.24;84.72;95469.94;29395;212;63009;-67
2022/04/07 01:05:38;;;;;;;0.50;0.50;;;;;;;8.25;84.71;95471.53;29395;204;63004;-66
2022/04/07 01:06:09;;;;;;;0.55;0.55;;;;;;;8.23;84.54;95476.44;29394;199;64009;-67
2022/04/07 01:06:47;;;;;;;0.50;0.50;;;;;;;8.19;84.59;95465.44;29394;202;64004;-66
2022/04/07 01:07:19;;;;;;;0.50;0.50;;;;;;;8.21;84.76;95478.66;29395;222;63008;-66
2022/04/07 01:07:51;;;;;;;0.50;0.50;;;;;;;8.22;85.20;95472.13;29395;202;63004;-67
2022/04/07 01:08:22;;;;;;;0.50;0.50;;;;;;;8.22;84.88;95472.13;29395;223;63009;-66
2022/04/07 01:08:55;;;;;;;0.50;0.50;;;;;;;8.19;85.09;95470.06;29395;237;63005;-59
2022/04/07 01:09:28;;;;;;;0.55;0.55;;;;;;;8.16;85.15;95478.78;29395;249;63009;-67
2022/04/07 01:10:00;;;;;;;0.50;0.50;;;;;;;8.13;85.08;95472.09;29395;205;63005;-67
2022/04/07 01:10:32;;;;;;;0.50;0.50;;;;;;;8.14;84.99;95472.91;29395;263;63009;-64
2022/04/07 01:11:03;;;;;;;0.60;0.60;;;;;;;8.21;85.09;95473.25;29395;214;63005;-67
2022/04/07 01:11:35;;;;;;;0.50;0.50;;;;;;;8.21;84.54;95470.53;29395;214;63013;-68
2022/04/07 01:12:08;;;;;;;0.50;0.50;;;;;;;8.20;85.07;95469.75;29394;243;64004;-67
2022/04/07 01:12:39;;;;;;;0.50;0.50;;;;;;;8.17;84.99;95467.66;29394;208;64009;-66
2022/04/07 01:13:11;;;;;;;0.50;0.50;;;;;;;8.15;84.97;95463.69;29395;197;63004;-67
2022/04/07 01:13:51;;;;;;;0.50;0.50;;;;;;;8.12;85.16;95459.69;29395;362;63009;-67
2022/04/07 01:14:22;;;;;;;0.50;0.50;;;;;;;8.08;86.35;95456.81;29395;211;63004;-61
2022/04/07 01:14:59;;;;;;;0.50;0.50;;;;;;;8.05;86.25;95452.03;29395;234;63008;-60
2022/04/07 01:15:31;;;;;;;0.50;0.50;;;;;;;8.02;86.64;95444.56;29395;248;63005;-59
2022/04/07 01:16:03;;;;;;;0.50;0.50;;;;;;;8.01;86.68;95447.56;29395;216;63009;-67
2022/04/07 01:16:36;;;;;;;0.50;0.50;;;;;;;7.99;86.67;95442.47;29395;211;63005;-61
2022/04/07 01:17:07;;;;;;;0.60;0.60;;;;;;;7.96;86.91;95445.81;29395;209;63009;-67
2022/04/07 01:17:38;;;;;;;0.50;0.50;;;;;;;7.96;86.55;95445.81;29395;236;63005;-66
2022/04/07 01:18:09;;;;;;;0.50;0.50;;;;;;;7.96;86.53;95450.44;29394;220;64009;-66
2022/04/07 01:18:41;;;;;;;0.60;0.60;;;;;;;7.98;86.47;95458.97;29395;249;63005;-67
2022/04/07 01:19:12;;;;;;;0.60;0.60;;;;;;;8.02;86.31;95455.34;29395;222;63009;-66
2022/04/07 01:19:44;;;;;;;0.52;0.52;;;;;;;8.06;86.38;95456.31;29395;252;63004;-66
2022/04/07 01:20:16;;;;;;;0.50;0.50;;;;;;;8.08;86.00;95448.72;29395;223;63009;-67
2022/04/07 01:20:48;;;;;;;0.50;0.50;;;;;;;8.07;86.15;95452.53;29395;252;63004;-59
2022/04/07 01:21:20;;;;;;;0.50;0.50;;;;;;;8.04;86.02;95455.03;29395;277;63009;-66
2022/04/07 01:21:51;;;;;;;0.50;0.50;;;;;;;8.00;86.00;95457.56;29395;222;63004;-60
2022/04/07 01:22:23;;;;;;;0.50;0.50;;;;;;;7.97;87.10;95452.78;29395;245;63008;-67
2022/04/07 01:22:56;;;;;;;0.50;0.50;;;;;;;7.93;87.38;95454.53;29395;301;63004;-67
2022/04/07 01:23:31;;;;;;;0.50;0.50;;;;;;;7.91;87.21;95456.75;29394;216;64009;-67
2022/04/07 01:24:05;;;;;;;0.50;0.50;;;;;;;7.90;87.18;95457.06;29395;214;63005;-67
2022/04/07 01:24:36;;;;;;;0.60;0.60;;;;;;;7.89;87.08;95456.25;29395;250;63009;-67
2022/04/07 01:25:09;;;;;;;0.50;0.50;;;;;;;7.88;87.62;95457.38;29395;214;63005;-67
2022/04/07 01:25:42;;;;;;;0.50;0.50;;;;;;;7.87;87.58;95454.97;29395;214;63015;-60
2022/04/07 01:26:14;;;;;;;0.60;0.60;;;;;;;7.84;88.22;95456.41;29395;260;63005;-67
2022/04/07 01:26:46;;;;;;;0.55;0.55;;;;;;;7.83;88.25;95452.09;29395;208;63009;-67
2022/04/07 01:27:18;;;;;;;0.50;0.50;;;;;;;7.83;88.30;95462.91;29395;197;63004;-59
2022/04/07 01:27:49;;;;;;;0.50;0.50;;;;;;;7.84;88.26;95452.91;29395;203;63009;-60
2022/04/07 01:28:21;;;;;;;0.50;0.50;;;;;;;7.81;88.33;95451.63;29395;249;63004;-68
2022/04/07 01:28:52;;;;;;;0.50;0.50;;;;;;;7.80;88.20;95449.22;29394;214;64009;-68
2022/04/07 01:29:25;;;;;;;0.50;0.50;;;;;;;7.80;88.14;95458.13;29394;298;64004;-68
2022/04/07 01:29:57;;;;;;;0.50;0.50;;;;;;;7.91;87.83;95456.75;29395;238;63016;-67
2022/04/07 01:30:29;;;;;;;0.60;0.60;;;;;;;8.01;87.07;95448.34;29395;196;63004;-67
2022/04/07 01:31:01;;;;;;;0.50;0.50;;;;;;;8.04;86.51;95457.75;29395;241;63009;-61
2022/04/07 01:31:36;;;;;;;0.47;0.47;;;;;;;8.03;86.63;95451.53;29395;218;63005;-67
2022/04/07 01:32:14;;;;;;;0.50;0.50;;;;;;;8.01;86.56;95450.25;29395;258;63009;-68
2022/04/07 01:32:52;;;;;;;0.50;0.50;;;;;;;7.98;86.60;95448.97;29395;203;63005;-66
2022/04/07 01:33:23;;;;;;;0.50;0.50;;;;;;;7.95;86.47;95448.84;29395;216;63009;-67
2022/04/07 01:33:57;;;;;;;0.50;0.50;;;;;;;7.94;86.78;95448.03;29395;214;63005;-67
2022/04/07 01:34:28;;;;;;;0.60;0.60;;;;;;;8.01;86.47;95444.88;29394;280;64009;-60
2022/04/07 01:35:01;;;;;;;0.50;0.50;;;;;;;8.04;86.17;95447.75;29394;376;64000;-67
2022/04/07 01:35:32;;;;;;;0.50;0.50;;;;;;;8.04;85.91;95442.34;29395;230;63009;-60
2022/04/07 01:36:05;;;;;;;0.50;0.50;;;;;;;8.02;86.23;95444.56;29395;237;63004;-66
2022/04/07 01:36:40;;;;;;;0.50;0.50;;;;;;;8.00;86.53;95440.56;29395;211;63009;-66
2022/04/07 01:37:12;;;;;;;0.50;0.50;;;;;;;7.95;86.43;95436.13;29395;202;63004;-67
2022/04/07 01:37:46;;;;;;;0.60;0.60;;;;;;;7.94;86.62;95437.22;29395;206;63008;-68
2022/04/07 01:38:19;;;;;;;0.50;0.50;;;;;;;7.92;87.24;95438.66;29395;254;63005;-68
2022/04/07 01:38:52;;;;;;;0.50;0.50;;;;;;;7.88;87.26;95433.06;29395;227;63014;-65
2022/04/07 01:39:27;;;;;;;0.50;0.50;;;;;;;7.87;87.00;95434.19;29395;197;63005;-66
2022/04/07 01:40:01;;;;;;;0.50;0.50;;;;;;;7.86;87.14;95434.47;29394;304;64009;-67
2022/04/07 01:40:35;;;;;;;0.50;0.50;;;;;;;7.86;87.20;95426.38;29395;202;63005;-59
2022/04/07 01:41:08;;;;;;;0.50;0.50;;;;;;;7.87;87.05;95433.38;29395;215;63009;-68
2022/04/07 01:41:43;;;;;;;0.50;0.50;;;;;;;7.87;87.16;95431.47;29395;245;63005;-60
2022/04/07 01:42:15;;;;;;;0.50;0.50;;;;;;;7.88;87.12;95430.38;29395;196;63009;-68
2022/04/07 01:42:48;;;;;;;0.50;0.50;;;;;;;7.91;87.16;95427.03;29395;234;63004;-65
2022/04/07 01:43:20;;;;;;;0.50;0.50;;;;;;;7.92;86.95;95434.03;29395;199;63009;-66
2022/04/07 01:43:51;;;;;;;0.50;0.50;;;;;;;7.92;87.15;95425.94;29395;223;63004;-66
2022/04/07 01:44:24;;;;;;;0.50;0.50;;;;;;;7.90;86.93;95428.16;29395;228;63009;-63
2022/04/07 01:44:57;;;;;;;0.50;0.50;;;;;;;7.87;87.36;95420.66;29395;247;63004;-68
2022/04/07 01:45:31;;;;;;;0.60;0.60;;;;;;;7.87;87.24;95436.88;29394;274;64008;-67
2022/04/07 01:46:02;;;;;;;0.50;0.50;;;;;;;7.88;86.97;95427.66;29395;223;63005;-65
2022/04/07 01:46:35;;;;;;;0.50;0.50;;;;;;;7.88;86.88;95433.06;29395;220;63009;-67
2022/04/07 01:47:09;;;;;;;0.50;0.50;;;;;;;7.88;86.91;95424.97;29395;225;63005;-59
2022/04/07 01:47:43;;;;;;;0.50;0.50;;;;;;;7.87;86.81;95431.47;29395;199;63009;-67
2022/04/07 01:48:16;;;;;;;0.60;0.60;;;;;;;7.85;86.80;95428.28;29395;223;63005;-68
2022/04/07 01:48:48;;;;;;;0.60;0.60;;;;;;;7.87;86.98;95426.06;29394;209;64009;-67
2022/04/07 01:49:22;;;;;;;0.60;0.60;;;;;;;7.87;87.00;95423.38;29395;198;63004;-67
2022/04/07 01:50:02;;;;;;;0.50;0.50;;;;;;;7.91;86.79;95427.03;29395;206;63009;-67
2022/04/07 01:50:36;;;;;;;0.60;0.60;;;;;;;7.93;86.79;95427.53;29417;220;63004;-66
2022/04/07 01:51:10;;;;;;;0.50;0.50;;;;;;;7.91;86.88;95427.03;29395;251;63009;-59
2022/04/07 01:51:43;;;;;;;0.50;0.50;;;;;;;7.90;86.87;95430.84;29394;273;64004;-65
2022/04/07 01:52:17;;;;;;;0.50;0.50;;;;;;;7.87;86.93;95428.78;29395;218;63008;-66
2022/04/07 01:52:49;;;;;;;0.50;0.50;;;;;;;7.86;87.05;95424.47;29395;263;63004;-66
2022/04/07 01:53:21;;;;;;;0.50;0.50;;;;;;;7.87;87.04;95422.56;29395;201;63009;-67
2022/04/07 01:53:56;;;;;;;0.60;0.60;;;;;;;7.90;86.84;95425.44;29394;212;64005;-68
2022/04/07 01:54:28;;;;;;;0.50;0.50;;;;;;;7.91;86.72;95421.66;29395;209;63009;-59
2022/04/07 01:55:00;;;;;;;0.55;0.55;;;;;;;7.90;86.43;95428.16;29395;208;63005;-66
2022/04/07 01:55:32;;;;;;;0.60;0.60;;;;;;;7.91;86.68;95427.03;29395;208;63009;-67
2022/04/07 01:56:09;;;;;;;0.50;0.50;;;;;;;7.94;86.74;95422.94;29395;219;64005;-67
2022/04/07 01:56:42;;;;;;;0.50;0.50;;;;;;;7.93;86.50;95422.13;29395;210;63007;-65
2022/04/07 01:57:13;;;;;;;0.60;0.60;;;;;;;7.90;86.58;95420.06;29395;206;63004;-67
2022/04/07 01:57:46;;;;;;;0.55;0.55;;;;;;;7.88;87.08;95426.88;29395;204;63009;-66
2022/04/07 01:58:18;;;;;;;0.50;0.50;;;;;;;7.84;87.17;95425.91;29395;265;63004;-66
2022/04/07 01:58:50;;;;;;;0.50;0.50;;;;;;;7.83;87.20;95425.09;29395;197;63009;-67
2022/04/07 01:59:22;;;;;;;0.50;0.50;;;;;;;7.82;87.20;95418.09;29394;202;64004;-67
2022/04/07 01:59:54;;;;;;;0.50;0.50;;;;;;;7.82;87.09;95428.91;29395;279;63009;-65
2022/04/07 02:00:25;;;;;;;0.50;0.50;;;;;;;7.82;87.27;95423.50;29395;366;63005;-67
2022/04/07 02:00:59;;;;;;;0.50;0.50;;;;;;;7.83;87.27;95421.59;29395;239;63019;-59
2022/04/07 02:01:31;;;;;;;0.50;0.50;;;;;;;7.83;86.94;95419.69;29395;210;63001;-66
2022/04/07 02:02:02;;;;;;;0.57;0.57;;;;;;;7.82;87.06;95423.50;29395;209;63009;-66
2022/04/07 02:02:33;;;;;;;0.50;0.50;;;;;;;7.84;86.81;95420.50;29395;203;63005;-67
2022/04/07 02:03:05;;;;;;;0.50;0.50;;;;;;;7.84;86.96;95415.88;29395;254;63009;-68
2022/04/07 02:03:40;;;;;;;0.50;0.50;;;;;;;7.84;87.21;95418.59;29395;212;63005;-67
2022/04/07 02:04:15;;;;;;;0.50;0.50;;;;;;;7.83;87.19;95419.69;29394;264;64009;-67
2022/04/07 02:05:08;;;;;;;0.60;0.60;;;;;;;7.84;87.32;95426.69;29395;215;63012;-67
2022/04/07 02:05:40;;;;;;;0.50;0.50;;;;;;;7.83;87.01;95419.69;29395;226;63009;-65
2022/04/07 02:06:16;;;;;;;0.50;0.50;;;;;;;7.82;87.29;95418.09;29394;229;64004;-63
2022/04/07 02:06:47;;;;;;;0.60;0.60;;;;;;;7.84;86.85;95421.28;29395;209;63008;-67
2022/04/07 02:07:20;;;;;;;0.50;0.50;;;;;;;7.84;86.96;95424.00;29395;219;63004;-65
2022/04/07 02:07:51;;;;;;;0.50;0.50;;;;;;;7.83;87.01;95418.91;29395;292;63009;-67
2022/04/07 02:08:22;;;;;;;0.50;0.50;;;;;;;7.83;86.75;95419.69;29395;222;63005;-66
2022/04/07 02:08:54;;;;;;;0.50;0.50;;;;;;;7.83;86.65;95418.91;29394;197;64009;-59
2022/04/07 02:09:25;;;;;;;0.50;0.50;;;;;;;7.82;86.97;95418.09;29395;197;63005;-61
2022/04/07 02:09:57;;;;;;;0.50;0.50;;;;;;;7.83;86.98;95416.19;29395;215;63009;-67
2022/04/07 02:10:30;;;;;;;0.52;0.52;;;;;;;7.83;86.99;95416.19;29394;214;64005;-66
2022/04/07 02:11:01;;;;;;;0.50;0.50;;;;;;;7.83;86.94;95414.28;29395;351;63009;-66
2022/04/07 02:11:32;;;;;;;0.60;0.60;;;;;;;7.83;87.05;95402.69;29395;197;63005;-66
2022/04/07 02:12:05;;;;;;;0.60;0.60;;;;;;;7.84;87.11;95410.50;29395;238;63009;-66
2022/04/07 02:12:40;;;;;;;0.50;0.50;;;;;;;7.84;87.03;95410.50;29395;236;63004;-66
2022/04/07 02:13:13;;;;;;;0.57;0.57;;;;;;;7.82;86.93;95412.69;29395;202;63014;-68
2022/04/07 02:13:45;;;;;;;0.60;0.60;;;;;;;7.82;86.78;95410.00;29395;233;63004;-67
2022/04/07 02:14:16;;;;;;;0.50;0.50;;;;;;;7.82;86.97;95412.69;29395;227;63008;-67
2022/04/07 02:14:50;;;;;;;0.50;0.50;;;;;;;7.82;86.83;95407.31;29395;239;63004;-67
2022/04/07 02:15:26;;;;;;;0.60;0.60;;;;;;;7.84;86.68;95415.09;29394;198;64024;-63
2022/04/07 02:15:57;;;;;;;0.60;0.60;;;;;;;7.83;86.98;95408.91;29394;219;64005;-66
2022/04/07 02:16:30;;;;;;;0.60;0.60;;;;;;;7.84;86.74;95405.09;29395;209;63009;-67
2022/04/07 02:17:01;;;;;;;0.60;0.60;;;;;;;7.85;86.87;95406.69;29395;225;63010;-66
2022/04/07 02:17:33;;;;;;;0.52;0.52;;;;;;;7.89;86.75;95412.25;29395;228;63009;-68
2022/04/07 02:18:05;;;;;;;0.60;0.60;;;;;;;7.89;86.45;95413.06;29395;211;63005;-66
2022/04/07 02:18:38;;;;;;;0.60;0.60;;;;;;;7.88;86.18;95411.47;29395;199;63009;-63
2022/04/07 02:19:09;;;;;;;0.50;0.50;;;;;;;7.85;86.45;95406.69;29394;202;64005;-67
2022/04/07 02:19:41;;;;;;;0.50;0.50;;;;;;;7.82;86.48;95412.69;29395;291;63009;-68
2022/04/07 02:20:12;;;;;;;0.52;0.52;;;;;;;7.80;86.82;95420.31;29395;236;63004;-67
2022/04/07 02:20:43;;;;;;;0.50;0.50;;;;;;;7.80;86.43;95408.72;29395;296;63009;-67
2022/04/07 02:21:15;;;;;;;0.60;0.60;;;;;;;7.81;86.68;95410.31;29395;213;63004;-67
2022/04/07 02:21:46;;;;;;;0.60;0.60;;;;;;;7.80;86.59;95414.91;29395;261;63008;-66
2022/04/07 02:22:18;;;;;;;0.60;0.60;;;;;;;7.82;86.66;95407.31;29395;297;63004;-59
2022/04/07 02:22:50;;;;;;;0.50;0.50;;;;;;;7.83;86.57;95408.91;29395;202;63009;-67
2022/04/07 02:23:22;;;;;;;0.60;0.60;;;;;;;7.84;86.55;95405.09;29395;224;63005;-68
2022/04/07 02:23:53;;;;;;;0.50;0.50;;;;;;;7.83;86.18;95411.59;29395;223;63009;-64
2022/04/07 02:24:28;;;;;;;0.50;0.50;;;;;;;7.83;86.12;95408.91;29394;229;64005;-67
2022/04/07 02:24:59;;;;;;;0.50;0.50;;;;;;;7.82;86.14;95407.31;29395;207;63009;-67
2022/04/07 02:25:30;;;;;;;0.50;0.50;;;;;;;7.81;86.25;95411.09;29395;227;63005;-67
2022/04/07 02:26:01;;;;;;;0.60;0.60;;;;;;;7.82;86.36;95401.09;29394;301;64009;-67
2022/04/07 02:26:32;;;;;;;0.60;0.60;;;;;;;7.90;86.21;95409.25;29395;217;63005;-64
2022/04/07 02:27:04;;;;;;;0.60;0.60;;;;;;;7.89;85.89;95406.84;29395;282;63009;-66
2022/04/07 02:27:37;;;;;;;0.60;0.60;;;;;;;7.87;85.89;95406.38;29395;257;63004;-67
2022/04/07 02:28:09;;;;;;;0.50;0.50;;;;;;;7.86;86.02;95402.88;29395;333;63009;-67
2022/04/07 02:28:40;;;;;;;0.50;0.50;;;;;;;7.85;86.07;95395.88;29395;206;63004;-67
2022/04/07 02:29:11;;;;;;;0.50;0.50;;;;;;;7.88;86.01;95403.34;29395;215;63009;-66
2022/04/07 02:29:43;;;;;;;0.50;0.50;;;;;;;7.90;85.86;95395.75;29395;241;63004;-67
2022/04/07 02:30:15;;;;;;;0.50;0.50;;;;;;;7.89;85.63;95399.56;29395;264;63009;-66
2022/04/07 02:30:48;;;;;;;0.60;0.60;;;;;;;7.95;85.82;95402.91;29395;205;63005;-65
2022/04/07 02:31:19;;;;;;;0.50;0.50;;;;;;;7.97;85.39;95403.41;29394;260;64009;-68
2022/04/07 02:31:51;;;;;;;0.50;0.50;;;;;;;7.96;85.25;95401.81;29395;254;63010;-66
2022/04/07 02:32:28;;;;;;;0.60;0.60;;;;;;;7.92;85.38;95398.94;29394;216;64009;-61
2022/04/07 02:33:00;;;;;;;0.50;0.50;;;;;;;7.88;85.91;95407.97;29395;197;63005;-65
2022/04/07 02:33:34;;;;;;;0.50;0.50;;;;;;;7.82;86.21;95396.50;29395;222;63009;-67
2022/04/07 02:34:05;;;;;;;0.50;0.50;;;;;;;7.80;86.30;95397.91;29394;196;64005;-64
2022/04/07 02:34:36;;;;;;;0.50;0.50;;;;;;;7.77;86.30;95393.94;29395;204;63009;-66
2022/04/07 02:35:13;;;;;;;0.60;0.60;;;;;;;7.76;86.31;95397.75;29394;205;64004;-65
2022/04/07 02:35:45;;;;;;;0.57;0.57;;;;;;;7.75;86.33;95404.25;29395;206;63009;-68
2022/04/07 02:36:19;;;;;;;0.50;0.50;;;;;;;7.74;86.41;95395.34;29394;254;64004;-68